Terminal Aerodrome Forecast
Issued by NWS

Home | Current Version | Previous Version | Text Only | Print | Product List | Glossary On
Versions: 1 2 3 4 5 6 7 8 9 10 11 12 13 14 15 16 17 18 19 20 21
000
FTUS44 KEPZ 191743 CCA
TAFTCS
TAF COR
KTCS 191743Z 1912/2012 20013G23KT P6SM VCSH FEW010 BKN030
     FM192000 21025G38KT P6SM VCSH FEW025 BKN040 BKN090
     FM200200 25013G23KT P6SM VCSH FEW020 SCT040 BKN090=

USA.gov is the U.S. government's official web portal to all federal, state and local government web resources and services.